Terminal Aerodrome Forecast
Issued by NWS Newport/Morehead City, NC

Home | Current Version | Previous Version | Text Only | Print | Product List | Glossary On
Versions: 1 2 3 4 5 6 7 8 9 10 11 12 13 14 15 16 17 18 19 20 21 22 23
632
FTUS42 KMHX 231507 AAC
TAFEWN
TAF AMD
KEWN 231507Z 2315/2412 02004KT P6SM SCT015
     FM231700 03005KT P6SM VCSH BKN050
     FM240000 VRB03KT P6SM SCT050
     FM240600 00000KT 2SM BR SCT005=

USA.gov is the U.S. government's official web portal to all federal, state and local government web resources and services.